sensor_id;sensor_type;location;lat;lon;timestamp;P1;durP1;ratioP1;P2;durP2;ratioP2
12888;SDS011;56848;49.896;11.424;2023-03-08T05:01:14;12.77;;;6.10;;
12888;SDS011;56848;49.896;11.424;2023-03-08T05:03:44;2.73;;;2.53;;
12888;SDS011;56848;49.896;11.424;2023-03-08T05:06:10;9.47;;;5.70;;
12888;SDS011;56848;49.896;11.424;2023-03-08T05:08:36;10.43;;;5.87;;
12888;SDS011;56848;49.896;11.424;2023-03-08T05:11:02;4.83;;;2.80;;
12888;SDS011;56848;49.896;11.424;2023-03-08T05:13:29;13.00;;;6.15;;
12888;SDS011;56848;49.896;11.424;2023-03-08T05:15:56;7.47;;;4.10;;
12888;SDS011;56848;49.896;11.424;2023-03-08T05:18:22;7.33;;;5.10;;
12888;SDS011;56848;49.896;11.424;2023-03-08T05:20:55;10.63;;;5.10;;
12888;SDS011;56848;49.896;11.424;2023-03-08T05:23:22;14.70;;;5.53;;
12888;SDS011;56848;49.896;11.424;2023-03-08T05:25:53;14.27;;;6.03;;
12888;SDS011;56848;49.896;11.424;2023-03-08T05:28:20;11.50;;;5.07;;
12888;SDS011;56848;49.896;11.424;2023-03-08T05:30:47;8.93;;;5.23;;
12888;SDS011;56848;49.896;11.424;2023-03-08T05:33:14;11.50;;;5.90;;
12888;SDS011;56848;49.896;11.424;2023-03-08T05:35:40;9.10;;;3.27;;
12888;SDS011;56848;49.896;11.424;2023-03-08T05:38:06;6.63;;;3.87;;
12888;SDS011;56848;49.896;11.424;2023-03-08T05:40:31;14.60;;;6.47;;
12888;SDS011;56848;49.896;11.424;2023-03-08T05:42:57;13.13;;;6.03;;
12888;SDS011;56848;49.896;11.424;2023-03-08T05:45:22;12.83;;;5.70;;
12888;SDS011;56848;49.896;11.424;2023-03-08T05:47:48;10.93;;;5.60;;
12888;SDS011;56848;49.896;11.424;2023-03-08T05:50:13;9.20;;;5.83;;
12888;SDS011;56848;49.896;11.424;2023-03-08T05:52:39;11.00;;;5.83;;
12888;SDS011;56848;49.896;11.424;2023-03-08T05:55:06;12.57;;;5.30;;
12888;SDS011;56848;49.896;11.424;2023-03-08T05:57:32;7.23;;;4.63;;
12888;SDS011;56848;49.896;11.424;2023-03-08T05:59:58;7.67;;;3.97;;
12888;SDS011;56848;49.896;11.424;2023-03-08T06:02:24;13.33;;;6.07;;
12888;SDS011;56848;49.896;11.424;2023-03-08T06:04:49;8.70;;;4.97;;
12888;SDS011;56848;49.896;11.424;2023-03-08T06:07:15;9.93;;;5.23;;
12888;SDS011;56848;49.896;11.424;2023-03-08T06:09:41;7.40;;;4.47;;
12888;SDS011;56848;49.896;11.424;2023-03-08T06:12:06;5.77;;;4.00;;
12888;SDS011;56848;49.896;11.424;2023-03-08T06:14:32;11.67;;;5.27;;
12888;SDS011;56848;49.896;11.424;2023-03-08T06:16:57;10.83;;;3.20;;
12888;SDS011;56848;49.896;11.424;2023-03-08T06:19:23;7.77;;;4.20;;
12888;SDS011;56848;49.896;11.424;2023-03-08T06:21:49;10.47;;;5.47;;
12888;SDS011;56848;49.896;11.424;2023-03-08T06:24:15;7.80;;;4.07;;
12888;SDS011;56848;49.896;11.424;2023-03-08T06:26:40;8.90;;;5.20;;
12888;SDS011;56848;49.896;11.424;2023-03-08T06:29:06;6.80;;;3.70;;
12888;SDS011;56848;49.896;11.424;2023-03-08T06:31:31;10.37;;;3.57;;
12888;SDS011;56848;49.896;11.424;2023-03-08T06:33:57;4.00;;;2.60;;
12888;SDS011;56848;49.896;11.424;2023-03-08T06:36:22;10.83;;;5.17;;
12888;SDS011;56848;49.896;11.424;2023-03-08T06:38:48;8.60;;;4.20;;
12888;SDS011;56848;49.896;11.424;2023-03-08T06:41:14;7.63;;;3.87;;
12888;SDS011;56848;49.896;11.424;2023-03-08T06:43:41;7.90;;;4.50;;
12888;SDS011;56848;49.896;11.424;2023-03-08T06:46:09;2.50;;;2.30;;
12888;SDS011;56848;49.896;11.424;2023-03-08T06:48:36;8.53;;;3.90;;
12888;SDS011;56848;49.896;11.424;2023-03-08T06:51:03;8.98;;;5.22;;
12888;SDS011;56848;49.896;11.424;2023-03-08T06:53:29;7.33;;;3.67;;
12888;SDS011;56848;49.896;11.424;2023-03-08T06:55:55;9.77;;;3.90;;
12888;SDS011;56848;49.896;11.424;2023-03-08T06:58:21;13.33;;;4.80;;
12888;SDS011;56848;49.896;11.424;2023-03-08T07:00:47;10.47;;;5.00;;
12888;SDS011;56848;49.896;11.424;2023-03-08T07:03:13;5.80;;;3.60;;
12888;SDS011;56848;49.896;11.424;2023-03-08T07:05:39;9.83;;;4.37;;
12888;SDS011;56848;49.896;11.424;2023-03-08T07:08:05;7.50;;;4.90;;
12888;SDS011;56848;49.896;11.424;2023-03-08T07:10:31;8.10;;;4.63;;
12888;SDS011;56848;49.896;11.424;2023-03-08T07:12:57;10.40;;;4.57;;
12888;SDS011;56848;49.896;11.424;2023-03-08T07:15:23;9.60;;;4.13;;
12888;SDS011;56848;49.896;11.424;2023-03-08T07:17:50;9.60;;;4.90;;
12888;SDS011;56848;49.896;11.424;2023-03-08T07:20:20;8.27;;;4.97;;
12888;SDS011;56848;49.896;11.424;2023-03-08T07:22:46;12.55;;;5.40;;
12888;SDS011;56848;49.896;11.424;2023-03-08T07:25:12;11.87;;;5.60;;
12888;SDS011;56848;49.896;11.424;2023-03-08T07:27:40;11.68;;;6.20;;
12888;SDS011;56848;49.896;11.424;2023-03-08T07:30:06;14.50;;;5.60;;
12888;SDS011;56848;49.896;11.424;2023-03-08T07:32:33;9.57;;;5.87;;
12888;SDS011;56848;49.896;11.424;2023-03-08T07:35:00;10.35;;;4.95;;
12888;SDS011;56848;49.896;11.424;2023-03-08T07:37:25;14.97;;;5.80;;
12888;SDS011;56848;49.896;11.424;2023-03-08T07:39:51;10.20;;;6.00;;
12888;SDS011;56848;49.896;11.424;2023-03-08T07:42:17;12.63;;;7.10;;
12888;SDS011;56848;49.896;11.424;2023-03-08T07:44:42;14.80;;;6.63;;
12888;SDS011;56848;49.896;11.424;2023-03-08T07:47:08;12.50;;;6.10;;
12888;SDS011;56848;49.896;11.424;2023-03-08T07:49:34;8.20;;;3.73;;
12888;SDS011;56848;49.896;11.424;2023-03-08T07:52:00;11.37;;;6.20;;
12888;SDS011;56848;49.896;11.424;2023-03-08T07:54:26;13.50;;;5.93;;
12888;SDS011;56848;49.896;11.424;2023-03-08T07:56:52;21.50;;;7.33;;
12888;SDS011;56848;49.896;11.424;2023-03-08T07:59:18;13.37;;;4.60;;
12888;SDS011;56848;49.896;11.424;2023-03-08T08:01:43;22.43;;;5.27;;
12888;SDS011;56848;49.896;11.424;2023-03-08T08:04:09;12.60;;;5.90;;
12888;SDS011;56848;49.896;11.424;2023-03-08T08:06:36;15.23;;;6.53;;
12888;SDS011;56848;49.896;11.424;2023-03-08T08:09:03;12.68;;;6.03;;
12888;SDS011;56848;49.896;11.424;2023-03-08T08:11:29;2.08;;;1.88;;
12888;SDS011;56848;49.896;11.424;2023-03-08T08:13:54;12.27;;;5.30;;
12888;SDS011;56848;49.896;11.424;2023-03-08T08:16:20;11.60;;;6.53;;
12888;SDS011;56848;49.896;11.424;2023-03-08T08:18:45;6.23;;;3.67;;
12888;SDS011;56848;49.896;11.424;2023-03-08T08:21:13;16.93;;;7.57;;
12888;SDS011;56848;49.896;11.424;2023-03-08T08:23:39;15.40;;;7.82;;
12888;SDS011;56848;49.896;11.424;2023-03-08T08:26:06;6.18;;;3.53;;
12888;SDS011;56848;49.896;11.424;2023-03-08T08:28:33;17.70;;;7.13;;
12888;SDS011;56848;49.896;11.424;2023-03-08T08:31:04;18.20;;;8.15;;
12888;SDS011;56848;49.896;11.424;2023-03-08T08:33:32;18.23;;;7.80;;
12888;SDS011;56848;49.896;11.424;2023-03-08T08:35:58;15.75;;;7.85;;
12888;SDS011;56848;49.896;11.424;2023-03-08T08:38:24;11.57;;;6.18;;
12888;SDS011;56848;49.896;11.424;2023-03-08T08:40:50;9.63;;;4.97;;
12888;SDS011;56848;49.896;11.424;2023-03-08T08:43:16;14.17;;;7.20;;
12888;SDS011;56848;49.896;11.424;2023-03-08T08:45:46;12.93;;;7.07;;
12888;SDS011;56848;49.896;11.424;2023-03-08T08:48:13;14.35;;;4.80;;
12888;SDS011;56848;49.896;11.424;2023-03-08T08:50:40;14.13;;;7.45;;
12888;SDS011;56848;49.896;11.424;2023-03-08T08:53:06;15.02;;;7.97;;
12888;SDS011;56848;49.896;11.424;2023-03-08T08:55:34;14.48;;;8.18;;
12888;SDS011;56848;49.896;11.424;2023-03-08T08:58:00;17.87;;;7.80;;
12888;SDS011;56848;49.896;11.424;2023-03-08T09:00:27;20.02;;;7.88;;
12888;SDS011;56848;49.896;11.424;2023-03-08T09:02:53;16.10;;;7.60;;
12888;SDS011;56848;49.896;11.424;2023-03-08T09:05:18;16.23;;;7.80;;
12888;SDS011;56848;49.896;11.424;2023-03-08T09:07:44;16.33;;;7.60;;
12888;SDS011;56848;49.896;11.424;2023-03-08T09:10:10;11.87;;;6.70;;
12888;SDS011;56848;49.896;11.424;2023-03-08T09:12:37;17.20;;;7.20;;
12888;SDS011;56848;49.896;11.424;2023-03-08T09:15:04;14.53;;;7.60;;
12888;SDS011;56848;49.896;11.424;2023-03-08T09:17:30;14.43;;;7.13;;
12888;SDS011;56848;49.896;11.424;2023-03-08T09:19:57;13.87;;;7.40;;
12888;SDS011;56848;49.896;11.424;2023-03-08T09:22:23;12.93;;;6.90;;
12888;SDS011;56848;49.896;11.424;2023-03-08T09:24:50;15.53;;;7.20;;
12888;SDS011;56848;49.896;11.424;2023-03-08T09:27:16;15.00;;;7.63;;
12888;SDS011;56848;49.896;11.424;2023-03-08T09:29:41;13.73;;;7.07;;
12888;SDS011;56848;49.896;11.424;2023-03-08T09:32:07;13.33;;;7.40;;
12888;SDS011;56848;49.896;11.424;2023-03-08T09:34:32;10.43;;;7.07;;
12888;SDS011;56848;49.896;11.424;2023-03-08T09:36:58;16.17;;;7.90;;
12888;SDS011;56848;49.896;11.424;2023-03-08T09:39:24;11.63;;;6.53;;
12888;SDS011;56848;49.896;11.424;2023-03-08T09:41:51;13.80;;;6.97;;
12888;SDS011;56848;49.896;11.424;2023-03-08T09:46:58;16.57;;;7.43;;
12888;SDS011;56848;49.896;11.424;2023-03-08T09:49:30;9.47;;;6.50;;
12888;SDS011;56848;49.896;11.424;2023-03-08T09:52:59;12.50;;;6.40;;
12888;SDS011;56848;49.896;11.424;2023-03-08T09:54:55;7.90;;;5.27;;
12888;SDS011;56848;49.896;11.424;2023-03-08T09:57:24;11.07;;;5.90;;
12888;SDS011;56848;49.896;11.424;2023-03-08T09:59:58;12.50;;;6.97;;
12888;SDS011;56848;49.896;11.424;2023-03-08T10:10:23;12.93;;;6.47;;
12888;SDS011;56848;49.896;11.424;2023-03-08T10:15:49;12.63;;;6.10;;
12888;SDS011;56848;49.896;11.424;2023-03-08T10:20:57;11.60;;;6.70;;
12888;SDS011;56848;49.896;11.424;2023-03-08T10:23:26;11.47;;;6.60;;
12888;SDS011;56848;49.896;11.424;2023-03-08T10:25:54;12.47;;;6.47;;
12888;SDS011;56848;49.896;11.424;2023-03-08T10:28:21;13.17;;;6.73;;
12888;SDS011;56848;49.896;11.424;2023-03-08T10:30:50;10.13;;;5.97;;
12888;SDS011;56848;49.896;11.424;2023-03-08T10:33:18;11.13;;;6.00;;
12888;SDS011;56848;49.896;11.424;2023-03-08T10:36:06;11.07;;;6.63;;
12888;SDS011;56848;49.896;11.424;2023-03-08T10:38:40;10.20;;;5.70;;
12888;SDS011;56848;49.896;11.424;2023-03-08T10:41:16;12.70;;;6.27;;
12888;SDS011;56848;49.896;11.424;2023-03-08T10:43:44;12.10;;;5.83;;
12888;SDS011;56848;49.896;11.424;2023-03-08T10:46:11;12.10;;;6.60;;
12888;SDS011;56848;49.896;11.424;2023-03-08T10:48:38;11.07;;;6.47;;
12888;SDS011;56848;49.896;11.424;2023-03-08T10:51:05;11.80;;;6.07;;
12888;SDS011;56848;49.896;11.424;2023-03-08T10:53:39;10.23;;;5.70;;
12888;SDS011;56848;49.896;11.424;2023-03-08T10:56:14;13.63;;;7.20;;
12888;SDS011;56848;49.896;11.424;2023-03-08T10:58:57;12.73;;;6.80;;
12888;SDS011;56848;49.896;11.424;2023-03-08T11:01:24;10.83;;;5.10;;
12888;SDS011;56848;49.896;11.424;2023-03-08T11:04:14;12.07;;;6.50;;
12888;SDS011;56848;49.896;11.424;2023-03-08T11:06:41;11.70;;;6.85;;
12888;SDS011;56848;49.896;11.424;2023-03-08T11:12:02;10.43;;;6.50;;
12888;SDS011;56848;49.896;11.424;2023-03-08T11:14:28;18.80;;;8.70;;
12888;SDS011;56848;49.896;11.424;2023-03-08T11:16:57;16.30;;;8.13;;
12888;SDS011;56848;49.896;11.424;2023-03-08T11:19:40;15.32;;;7.47;;
12888;SDS011;56848;49.896;11.424;2023-03-08T11:22:31;17.97;;;8.17;;
12888;SDS011;56848;49.896;11.424;2023-03-08T11:28:15;13.50;;;7.00;;
12888;SDS011;56848;49.896;11.424;2023-03-08T11:30:54;13.63;;;7.07;;
12888;SDS011;56848;49.896;11.424;2023-03-08T11:44:27;10.50;;;6.38;;
12888;SDS011;56848;49.896;11.424;2023-03-08T11:58:32;29.90;;;14.88;;
12888;SDS011;56848;49.896;11.424;2023-03-08T12:01:07;11.85;;;5.95;;
12888;SDS011;56848;49.896;11.424;2023-03-08T12:03:56;13.63;;;7.07;;
12888;SDS011;56848;49.896;11.424;2023-03-08T12:06:34;9.30;;;4.40;;
12888;SDS011;56848;49.896;11.424;2023-03-08T12:09:06;5.87;;;4.60;;
12888;SDS011;56848;49.896;11.424;2023-03-08T12:11:41;13.65;;;7.03;;
12888;SDS011;56848;49.896;11.424;2023-03-08T12:14:13;22.97;;;12.03;;
12888;SDS011;56848;49.896;11.424;2023-03-08T12:16:53;12.80;;;7.80;;
12888;SDS011;56848;49.896;11.424;2023-03-08T12:19:40;22.63;;;10.43;;
12888;SDS011;56848;49.896;11.424;2023-03-08T12:24:59;13.15;;;6.82;;
12888;SDS011;56848;49.896;11.424;2023-03-08T12:27:48;16.90;;;9.27;;
12888;SDS011;56848;49.896;11.424;2023-03-08T12:33:23;12.57;;;6.70;;
12888;SDS011;56848;49.896;11.424;2023-03-08T12:40:49;15.63;;;9.30;;
12888;SDS011;56848;49.896;11.424;2023-03-08T12:45:59;17.23;;;10.73;;
12888;SDS011;56848;49.896;11.424;2023-03-08T12:48:31;9.18;;;5.63;;
12888;SDS011;56848;49.896;11.424;2023-03-08T12:51:18;9.25;;;5.65;;
12888;SDS011;56848;49.896;11.424;2023-03-08T12:56:21;14.35;;;7.70;;
12888;SDS011;56848;49.896;11.424;2023-03-08T12:58:53;13.90;;;8.45;;
12888;SDS011;56848;49.896;11.424;2023-03-08T13:03:52;9.70;;;5.43;;
12888;SDS011;56848;49.896;11.424;2023-03-08T13:09:19;18.92;;;11.38;;
12888;SDS011;56848;49.896;11.424;2023-03-08T13:11:50;24.30;;;13.43;;
12888;SDS011;56848;49.896;11.424;2023-03-08T13:14:26;15.68;;;8.13;;
12888;SDS011;56848;49.896;11.424;2023-03-08T13:17:32;41.17;;;20.88;;
12888;SDS011;56848;49.896;11.424;2023-03-08T13:20:01;21.30;;;10.40;;
12888;SDS011;56848;49.896;11.424;2023-03-08T13:22:54;15.77;;;9.30;;
12888;SDS011;56848;49.896;11.424;2023-03-08T13:25:35;22.50;;;7.95;;
12888;SDS011;56848;49.896;11.424;2023-03-08T13:28:14;18.73;;;9.50;;
12888;SDS011;56848;49.896;11.424;2023-03-08T13:30:55;14.52;;;9.35;;
12888;SDS011;56848;49.896;11.424;2023-03-08T13:33:57;13.27;;;8.27;;
12888;SDS011;56848;49.896;11.424;2023-03-08T13:36:26;12.90;;;7.75;;
12888;SDS011;56848;49.896;11.424;2023-03-08T13:39:07;15.87;;;8.90;;
12888;SDS011;56848;49.896;11.424;2023-03-08T13:41:43;13.17;;;7.87;;
12888;SDS011;56848;49.896;11.424;2023-03-08T13:44:14;13.80;;;8.70;;
12888;SDS011;56848;49.896;11.424;2023-03-08T13:46:41;13.07;;;7.80;;
12888;SDS011;56848;49.896;11.424;2023-03-08T13:49:12;13.50;;;8.70;;
12888;SDS011;56848;49.896;11.424;2023-03-08T13:51:46;18.50;;;9.73;;
12888;SDS011;56848;49.896;11.424;2023-03-08T13:54:14;16.83;;;8.90;;
12888;SDS011;56848;49.896;11.424;2023-03-08T13:56:44;41.70;;;20.10;;
12888;SDS011;56848;49.896;11.424;2023-03-08T13:59:15;36.67;;;18.13;;
12888;SDS011;56848;49.896;11.424;2023-03-08T14:01:45;20.60;;;11.50;;
12888;SDS011;56848;49.896;11.424;2023-03-08T14:04:15;23.50;;;13.20;;
12888;SDS011;56848;49.896;11.424;2023-03-08T14:06:50;13.30;;;8.33;;
12888;SDS011;56848;49.896;11.424;2023-03-08T14:09:21;10.47;;;6.50;;
12888;SDS011;56848;49.896;11.424;2023-03-08T14:12:02;12.90;;;7.87;;
12888;SDS011;56848;49.896;11.424;2023-03-08T14:14:31;14.60;;;8.33;;
12888;SDS011;56848;49.896;11.424;2023-03-08T14:16:58;17.47;;;7.93;;
12888;SDS011;56848;49.896;11.424;2023-03-08T14:19:26;11.70;;;7.53;;
12888;SDS011;56848;49.896;11.424;2023-03-08T14:21:57;13.47;;;8.13;;
12888;SDS011;56848;49.896;11.424;2023-03-08T14:24:26;11.67;;;8.00;;
12888;SDS011;56848;49.896;11.424;2023-03-08T14:27:01;14.53;;;8.57;;
12888;SDS011;56848;49.896;11.424;2023-03-08T14:29:58;18.97;;;8.50;;
12888;SDS011;56848;49.896;11.424;2023-03-08T14:32:30;21.33;;;9.10;;
12888;SDS011;56848;49.896;11.424;2023-03-08T14:37:52;12.23;;;6.87;;
12888;SDS011;56848;49.896;11.424;2023-03-08T14:42:56;13.67;;;8.87;;
12888;SDS011;56848;49.896;11.424;2023-03-08T14:46:13;14.50;;;9.57;;
12888;SDS011;56848;49.896;11.424;2023-03-08T14:53:32;16.00;;;8.73;;
12888;SDS011;56848;49.896;11.424;2023-03-08T14:56:01;11.40;;;7.60;;
12888;SDS011;56848;49.896;11.424;2023-03-08T14:58:32;11.20;;;7.70;;
12888;SDS011;56848;49.896;11.424;2023-03-08T15:01:01;11.47;;;7.03;;
12888;SDS011;56848;49.896;11.424;2023-03-08T15:03:29;11.50;;;7.40;;
12888;SDS011;56848;49.896;11.424;2023-03-08T15:05:56;10.87;;;7.40;;
12888;SDS011;56848;49.896;11.424;2023-03-08T15:08:23;11.50;;;7.53;;
12888;SDS011;56848;49.896;11.424;2023-03-08T15:10:49;13.23;;;7.67;;
12888;SDS011;56848;49.896;11.424;2023-03-08T15:13:20;10.97;;;7.00;;
12888;SDS011;56848;49.896;11.424;2023-03-08T15:15:47;11.30;;;7.80;;
12888;SDS011;56848;49.896;11.424;2023-03-08T15:18:13;15.10;;;8.33;;
12888;SDS011;56848;49.896;11.424;2023-03-08T15:20:40;14.43;;;8.10;;
12888;SDS011;56848;49.896;11.424;2023-03-08T15:23:10;10.33;;;7.30;;
12888;SDS011;56848;49.896;11.424;2023-03-08T15:25:41;11.70;;;8.00;;
12888;SDS011;56848;49.896;11.424;2023-03-08T15:28:09;10.57;;;6.80;;
12888;SDS011;56848;49.896;11.424;2023-03-08T15:30:38;12.50;;;7.40;;
12888;SDS011;56848;49.896;11.424;2023-03-08T15:33:03;12.00;;;7.20;;
12888;SDS011;56848;49.896;11.424;2023-03-08T15:35:29;12.00;;;7.97;;
12888;SDS011;56848;49.896;11.424;2023-03-08T15:37:55;12.43;;;8.20;;
12888;SDS011;56848;49.896;11.424;2023-03-08T15:40:22;21.23;;;11.03;;
12888;SDS011;56848;49.896;11.424;2023-03-08T15:42:51;15.80;;;9.37;;
12888;SDS011;56848;49.896;11.424;2023-03-08T15:45:17;15.90;;;9.00;;
12888;SDS011;56848;49.896;11.424;2023-03-08T15:47:42;20.87;;;10.37;;
12888;SDS011;56848;49.896;11.424;2023-03-08T15:50:13;18.63;;;10.40;;
12888;SDS011;56848;49.896;11.424;2023-03-08T15:52:40;17.07;;;10.00;;
12888;SDS011;56848;49.896;11.424;2023-03-08T15:55:06;13.23;;;7.77;;
12888;SDS011;56848;49.896;11.424;2023-03-08T15:57:33;13.00;;;8.60;;
12888;SDS011;56848;49.896;11.424;2023-03-08T16:00:01;10.57;;;7.57;;
12888;SDS011;56848;49.896;11.424;2023-03-08T16:02:30;13.77;;;7.27;;
12888;SDS011;56848;49.896;11.424;2023-03-08T16:04:56;14.73;;;8.80;;
12888;SDS011;56848;49.896;11.424;2023-03-08T16:07:22;17.13;;;8.53;;
12888;SDS011;56848;49.896;11.424;2023-03-08T16:09:47;21.07;;;9.43;;
12888;SDS011;56848;49.896;11.424;2023-03-08T16:12:13;20.40;;;9.63;;
12888;SDS011;56848;49.896;11.424;2023-03-08T16:14:39;14.70;;;6.20;;
12888;SDS011;56848;49.896;11.424;2023-03-08T16:17:11;15.60;;;9.97;;
12888;SDS011;56848;49.896;11.424;2023-03-08T16:19:37;17.43;;;8.77;;
12888;SDS011;56848;49.896;11.424;2023-03-08T16:22:02;23.40;;;10.10;;
12888;SDS011;56848;49.896;11.424;2023-03-08T16:24:28;16.50;;;9.57;;
12888;SDS011;56848;49.896;11.424;2023-03-08T16:26:54;11.73;;;6.13;;
12888;SDS011;56848;49.896;11.424;2023-03-08T16:29:21;14.67;;;8.70;;
12888;SDS011;56848;49.896;11.424;2023-03-08T16:31:46;19.50;;;9.90;;
12888;SDS011;56848;49.896;11.424;2023-03-08T16:34:12;17.63;;;8.27;;
12888;SDS011;56848;49.896;11.424;2023-03-08T16:36:38;16.83;;;9.27;;
12888;SDS011;56848;49.896;11.424;2023-03-08T16:39:04;17.73;;;9.17;;
12888;SDS011;56848;49.896;11.424;2023-03-08T16:41:34;17.30;;;9.30;;
12888;SDS011;56848;49.896;11.424;2023-03-08T16:44:01;20.23;;;9.80;;
12888;SDS011;56848;49.896;11.424;2023-03-08T16:46:26;17.33;;;9.63;;
12888;SDS011;56848;49.896;11.424;2023-03-08T16:48:53;19.90;;;8.93;;
12888;SDS011;56848;49.896;11.424;2023-03-08T16:51:21;15.37;;;9.37;;
12888;SDS011;56848;49.896;11.424;2023-03-08T16:53:49;15.43;;;7.10;;
12888;SDS011;56848;49.896;11.424;2023-03-08T16:56:18;12.77;;;6.37;;
12888;SDS011;56848;49.896;11.424;2023-03-08T16:58:49;15.00;;;8.00;;
12888;SDS011;56848;49.896;11.424;2023-03-08T17:01:15;17.97;;;9.17;;
12888;SDS011;56848;49.896;11.424;2023-03-08T17:03:42;15.07;;;6.80;;
12888;SDS011;56848;49.896;11.424;2023-03-08T17:06:08;15.00;;;8.47;;
12888;SDS011;56848;49.896;11.424;2023-03-08T17:08:36;9.13;;;5.90;;
12888;SDS011;56848;49.896;11.424;2023-03-08T17:11:01;4.33;;;2.97;;
12888;SDS011;56848;49.896;11.424;2023-03-08T17:13:29;10.20;;;6.50;;
12888;SDS011;56848;49.896;11.424;2023-03-08T17:15:55;9.10;;;5.83;;
12888;SDS011;56848;49.896;11.424;2023-03-08T17:18:21;12.30;;;7.03;;
12888;SDS011;56848;49.896;11.424;2023-03-08T17:20:50;12.10;;;5.23;;
12888;SDS011;56848;49.896;11.424;2023-03-08T17:23:17;7.47;;;4.97;;
12888;SDS011;56848;49.896;11.424;2023-03-08T17:25:44;5.00;;;3.00;;
12888;SDS011;56848;49.896;11.424;2023-03-08T17:28:10;7.20;;;4.67;;
12888;SDS011;56848;49.896;11.424;2023-03-08T17:30:39;9.50;;;2.67;;
12888;SDS011;56848;49.896;11.424;2023-03-08T17:33:05;12.00;;;5.77;;
12888;SDS011;56848;49.896;11.424;2023-03-08T17:35:31;5.93;;;3.87;;
12888;SDS011;56848;49.896;11.424;2023-03-08T17:37:57;8.27;;;5.23;;
12888;SDS011;56848;49.896;11.424;2023-03-08T17:40:22;4.23;;;3.10;;
12888;SDS011;56848;49.896;11.424;2023-03-08T17:42:48;3.80;;;2.23;;
12888;SDS011;56848;49.896;11.424;2023-03-08T17:45:14;6.23;;;4.30;;
12888;SDS011;56848;49.896;11.424;2023-03-08T17:47:41;6.27;;;4.70;;
12888;SDS011;56848;49.896;11.424;2023-03-08T17:50:07;4.83;;;3.53;;
12888;SDS011;56848;49.896;11.424;2023-03-08T17:52:35;7.13;;;3.93;;
12888;SDS011;56848;49.896;11.424;2023-03-08T17:55:00;3.50;;;3.07;;
12888;SDS011;56848;49.896;11.424;2023-03-08T17:57:26;5.93;;;3.00;;
12888;SDS011;56848;49.896;11.424;2023-03-08T17:59:52;3.73;;;2.80;;
12888;SDS011;56848;49.896;11.424;2023-03-08T18:02:18;5.17;;;2.40;;
12888;SDS011;56848;49.896;11.424;2023-03-08T18:04:45;4.37;;;2.43;;
12888;SDS011;56848;49.896;11.424;2023-03-08T18:07:13;1.70;;;1.60;;
12888;SDS011;56848;49.896;11.424;2023-03-08T18:09:40;1.90;;;1.70;;
12888;SDS011;56848;49.896;11.424;2023-03-08T18:12:06;2.37;;;2.17;;
12888;SDS011;56848;49.896;11.424;2023-03-08T18:14:35;2.57;;;2.37;;
12888;SDS011;56848;49.896;11.424;2023-03-08T18:17:01;2.07;;;1.97;;
12888;SDS011;56848;49.896;11.424;2023-03-08T18:19:27;5.33;;;3.50;;
12888;SDS011;56848;49.896;11.424;2023-03-08T18:21:53;4.90;;;2.37;;
12888;SDS011;56848;49.896;11.424;2023-03-08T18:24:21;2.20;;;2.00;;
12888;SDS011;56848;49.896;11.424;2023-03-08T18:26:48;4.07;;;3.67;;
12888;SDS011;56848;49.896;11.424;2023-03-08T18:29:15;4.67;;;3.40;;
12888;SDS011;56848;49.896;11.424;2023-03-08T18:31:40;4.60;;;3.40;;
12888;SDS011;56848;49.896;11.424;2023-03-08T18:34:06;4.10;;;3.23;;
12888;SDS011;56848;49.896;11.424;2023-03-08T18:36:33;2.70;;;2.53;;
12888;SDS011;56848;49.896;11.424;2023-03-08T18:39:02;3.00;;;2.10;;
12888;SDS011;56848;49.896;11.424;2023-03-08T18:41:29;2.73;;;2.53;;
12888;SDS011;56848;49.896;11.424;2023-03-08T18:43:55;4.27;;;2.30;;
12888;SDS011;56848;49.896;11.424;2023-03-08T18:46:22;2.70;;;1.83;;
12888;SDS011;56848;49.896;11.424;2023-03-08T18:48:53;4.53;;;3.10;;
12888;SDS011;56848;49.896;11.424;2023-03-08T18:51:19;3.10;;;2.90;;
12888;SDS011;56848;49.896;11.424;2023-03-08T18:53:45;1.80;;;1.70;;
12888;SDS011;56848;49.896;11.424;2023-03-08T18:56:10;4.00;;;2.80;;
12888;SDS011;56848;49.896;11.424;2023-03-08T18:58:36;3.50;;;3.20;;
12888;SDS011;56848;49.896;11.424;2023-03-08T19:01:07;3.60;;;3.30;;
12888;SDS011;56848;49.896;11.424;2023-03-08T19:03:37;3.80;;;3.50;;
12888;SDS011;56848;49.896;11.424;2023-03-08T19:06:04;2.90;;;2.70;;
12888;SDS011;56848;49.896;11.424;2023-03-08T19:08:30;5.20;;;3.67;;
12888;SDS011;56848;49.896;11.424;2023-03-08T19:10:56;3.40;;;3.00;;
12888;SDS011;56848;49.896;11.424;2023-03-08T19:13:23;2.87;;;2.67;;
12888;SDS011;56848;49.896;11.424;2023-03-08T19:15:49;5.03;;;3.00;;
12888;SDS011;56848;49.896;11.424;2023-03-08T19:18:14;4.23;;;3.50;;
12888;SDS011;56848;49.896;11.424;2023-03-08T19:20:40;2.40;;;2.20;;
12888;SDS011;56848;49.896;11.424;2023-03-08T19:23:07;1.97;;;1.83;;
12888;SDS011;56848;49.896;11.424;2023-03-08T19:25:34;3.83;;;3.20;;
12888;SDS011;56848;49.896;11.424;2023-03-08T19:28:23;5.93;;;2.47;;
12888;SDS011;56848;49.896;11.424;2023-03-08T19:30:49;1.13;;;1.10;;
12888;SDS011;56848;49.896;11.424;2023-03-08T19:33:15;2.60;;;2.40;;
12888;SDS011;56848;49.896;11.424;2023-03-08T19:35:40;2.30;;;1.97;;
12888;SDS011;56848;49.896;11.424;2023-03-08T19:38:06;4.00;;;2.20;;
12888;SDS011;56848;49.896;11.424;2023-03-08T19:40:32;2.40;;;1.73;;
12888;SDS011;56848;49.896;11.424;2023-03-08T19:42:58;3.10;;;2.73;;
12888;SDS011;56848;49.896;11.424;2023-03-08T19:48:04;3.20;;;2.90;;
12888;SDS011;56848;49.896;11.424;2023-03-08T19:50:30;5.30;;;3.53;;
12888;SDS011;56848;49.896;11.424;2023-03-08T19:52:55;3.90;;;3.50;;
12888;SDS011;56848;49.896;11.424;2023-03-08T19:55:21;3.30;;;3.10;;
12888;SDS011;56848;49.896;11.424;2023-03-08T19:57:46;2.83;;;2.63;;
12888;SDS011;56848;49.896;11.424;2023-03-08T20:00:12;2.77;;;2.57;;
12888;SDS011;56848;49.896;11.424;2023-03-08T20:02:38;4.03;;;3.33;;
12888;SDS011;56848;49.896;11.424;2023-03-08T20:05:09;3.10;;;2.50;;
12888;SDS011;56848;49.896;11.424;2023-03-08T20:07:35;2.97;;;2.33;;
12888;SDS011;56848;49.896;11.424;2023-03-08T20:10:01;3.00;;;2.60;;
12888;SDS011;56848;49.896;11.424;2023-03-08T20:12:26;2.80;;;2.50;;
12888;SDS011;56848;49.896;11.424;2023-03-08T20:14:52;2.70;;;2.50;;
12888;SDS011;56848;49.896;11.424;2023-03-08T20:17:17;1.93;;;1.83;;
12888;SDS011;56848;49.896;11.424;2023-03-08T20:19:43;1.73;;;1.63;;
12888;SDS011;56848;49.896;11.424;2023-03-08T20:22:08;2.97;;;2.30;;
12888;SDS011;56848;49.896;11.424;2023-03-08T20:24:34;2.70;;;1.80;;
12888;SDS011;56848;49.896;11.424;2023-03-08T20:27:00;1.73;;;1.63;;
12888;SDS011;56848;49.896;11.424;2023-03-08T20:29:25;1.97;;;1.87;;
12888;SDS011;56848;49.896;11.424;2023-03-08T20:31:51;1.90;;;1.80;;
12888;SDS011;56848;49.896;11.424;2023-03-08T20:34:19;1.60;;;1.50;;
12888;SDS011;56848;49.896;11.424;2023-03-08T20:36:45;1.50;;;1.40;;
12888;SDS011;56848;49.896;11.424;2023-03-08T20:39:11;1.50;;;1.40;;
12888;SDS011;56848;49.896;11.424;2023-03-08T20:41:37;1.40;;;1.30;;
12888;SDS011;56848;49.896;11.424;2023-03-08T20:44:02;2.33;;;1.53;;
12888;SDS011;56848;49.896;11.424;2023-03-08T20:46:29;6.50;;;1.30;;
12888;SDS011;56848;49.896;11.424;2023-03-08T20:48:56;2.60;;;1.00;;
